sensor_id;sensor_type;location;lat;lon;timestamp;P1;durP1;ratioP1;P2;durP2;ratioP2
21360;SDS011;10839;43.206;23.550;2023-04-24T00:00:55;7.43;;;4.20;;
21360;SDS011;10839;43.206;23.550;2023-04-24T00:03:26;5.85;;;4.20;;
21360;SDS011;10839;43.206;23.550;2023-04-24T00:05:56;6.78;;;4.03;;
21360;SDS011;10839;43.206;23.550;2023-04-24T00:08:22;4.85;;;3.58;;
21360;SDS011;10839;43.206;23.550;2023-04-24T00:10:49;6.80;;;4.07;;
21360;SDS011;10839;43.206;23.550;2023-04-24T00:13:14;8.15;;;4.30;;
21360;SDS011;10839;43.206;23.550;2023-04-24T00:15:40;6.43;;;3.95;;
21360;SDS011;10839;43.206;23.550;2023-04-24T00:18:06;5.53;;;3.70;;
21360;SDS011;10839;43.206;23.550;2023-04-24T00:20:32;6.10;;;4.18;;
21360;SDS011;10839;43.206;23.550;2023-04-24T00:23:00;8.52;;;4.15;;
21360;SDS011;10839;43.206;23.550;2023-04-24T00:25:26;8.82;;;3.83;;
21360;SDS011;10839;43.206;23.550;2023-04-24T00:27:52;5.57;;;3.88;;
21360;SDS011;10839;43.206;23.550;2023-04-24T00:30:18;5.80;;;4.15;;
21360;SDS011;10839;43.206;23.550;2023-04-24T00:32:43;7.15;;;3.97;;
21360;SDS011;10839;43.206;23.550;2023-04-24T00:35:09;6.15;;;3.90;;
21360;SDS011;10839;43.206;23.550;2023-04-24T00:37:35;7.63;;;4.35;;
21360;SDS011;10839;43.206;23.550;2023-04-24T00:40:01;5.10;;;4.07;;
21360;SDS011;10839;43.206;23.550;2023-04-24T00:42:28;6.32;;;4.35;;
21360;SDS011;10839;43.206;23.550;2023-04-24T00:44:54;3.95;;;3.60;;
21360;SDS011;10839;43.206;23.550;2023-04-24T00:47:22;5.97;;;4.07;;
21360;SDS011;10839;43.206;23.550;2023-04-24T00:49:48;6.15;;;4.30;;
21360;SDS011;10839;43.206;23.550;2023-04-24T00:52:14;7.22;;;4.65;;
21360;SDS011;10839;43.206;23.550;2023-04-24T00:54:43;7.70;;;4.40;;
21360;SDS011;10839;43.206;23.550;2023-04-24T00:57:10;6.93;;;4.30;;
21360;SDS011;10839;43.206;23.550;2023-04-24T00:59:38;5.95;;;4.30;;
21360;SDS011;10839;43.206;23.550;2023-04-24T01:02:07;6.10;;;4.00;;
21360;SDS011;10839;43.206;23.550;2023-04-24T01:04:34;5.50;;;3.80;;
21360;SDS011;10839;43.206;23.550;2023-04-24T01:07:00;8.20;;;4.40;;
21360;SDS011;10839;43.206;23.550;2023-04-24T01:09:26;4.72;;;4.05;;
21360;SDS011;10839;43.206;23.550;2023-04-24T01:11:52;7.53;;;4.15;;
21360;SDS011;10839;43.206;23.550;2023-04-24T01:14:18;6.65;;;3.92;;
21360;SDS011;10839;43.206;23.550;2023-04-24T01:16:44;5.38;;;3.90;;
21360;SDS011;10839;43.206;23.550;2023-04-24T01:19:10;5.57;;;4.15;;
21360;SDS011;10839;43.206;23.550;2023-04-24T01:21:38;6.40;;;4.18;;
21360;SDS011;10839;43.206;23.550;2023-04-24T01:24:05;7.38;;;4.22;;
21360;SDS011;10839;43.206;23.550;2023-04-24T01:26:32;9.75;;;5.63;;
21360;SDS011;10839;43.206;23.550;2023-04-24T01:28:59;7.35;;;6.40;;
21360;SDS011;10839;43.206;23.550;2023-04-24T01:31:25;8.40;;;6.07;;
21360;SDS011;10839;43.206;23.550;2023-04-24T01:33:51;9.70;;;6.93;;
21360;SDS011;10839;43.206;23.550;2023-04-24T01:36:17;9.85;;;5.95;;
21360;SDS011;10839;43.206;23.550;2023-04-24T01:38:44;7.88;;;6.80;;
21360;SDS011;10839;43.206;23.550;2023-04-24T01:41:10;13.32;;;6.65;;
21360;SDS011;10839;43.206;23.550;2023-04-24T01:43:36;11.25;;;7.25;;
21360;SDS011;10839;43.206;23.550;2023-04-24T01:46:02;10.85;;;6.88;;
21360;SDS011;10839;43.206;23.550;2023-04-24T01:48:28;11.35;;;6.70;;
21360;SDS011;10839;43.206;23.550;2023-04-24T01:50:56;10.00;;;6.80;;
21360;SDS011;10839;43.206;23.550;2023-04-24T01:53:22;12.52;;;7.30;;
21360;SDS011;10839;43.206;23.550;2023-04-24T01:55:48;9.55;;;7.13;;
21360;SDS011;10839;43.206;23.550;2023-04-24T01:58:13;10.65;;;7.45;;
21360;SDS011;10839;43.206;23.550;2023-04-24T02:00:39;10.85;;;7.05;;
21360;SDS011;10839;43.206;23.550;2023-04-24T02:03:05;9.95;;;7.70;;
21360;SDS011;10839;43.206;23.550;2023-04-24T02:05:31;44.80;;;25.35;;
21360;SDS011;10839;43.206;23.550;2023-04-24T02:07:57;113.20;;;61.88;;
21360;SDS011;10839;43.206;23.550;2023-04-24T02:10:23;41.35;;;23.17;;
21360;SDS011;10839;43.206;23.550;2023-04-24T02:12:50;18.98;;;10.45;;
21360;SDS011;10839;43.206;23.550;2023-04-24T02:15:16;14.50;;;8.48;;
21360;SDS011;10839;43.206;23.550;2023-04-24T02:17:43;13.25;;;8.57;;
21360;SDS011;10839;43.206;23.550;2023-04-24T02:20:09;15.25;;;8.80;;
21360;SDS011;10839;43.206;23.550;2023-04-24T02:22:37;45.70;;;22.88;;
21360;SDS011;10839;43.206;23.550;2023-04-24T02:25:03;35.30;;;17.17;;
21360;SDS011;10839;43.206;23.550;2023-04-24T02:27:29;23.35;;;13.50;;
21360;SDS011;10839;43.206;23.550;2023-04-24T02:29:56;22.77;;;11.48;;
21360;SDS011;10839;43.206;23.550;2023-04-24T02:32:22;14.25;;;8.18;;
21360;SDS011;10839;43.206;23.550;2023-04-24T02:34:47;15.25;;;8.20;;
21360;SDS011;10839;43.206;23.550;2023-04-24T02:37:13;10.18;;;8.27;;
21360;SDS011;10839;43.206;23.550;2023-04-24T02:39:39;27.02;;;17.45;;
21360;SDS011;10839;43.206;23.550;2023-04-24T02:42:05;26.73;;;15.65;;
21360;SDS011;10839;43.206;23.550;2023-04-24T02:44:31;70.43;;;36.35;;
21360;SDS011;10839;43.206;23.550;2023-04-24T02:46:57;19.08;;;11.85;;
21360;SDS011;10839;43.206;23.550;2023-04-24T02:49:23;20.17;;;11.93;;
21360;SDS011;10839;43.206;23.550;2023-04-24T02:51:49;16.83;;;9.68;;
21360;SDS011;10839;43.206;23.550;2023-04-24T02:54:14;14.73;;;8.82;;
21360;SDS011;10839;43.206;23.550;2023-04-24T02:56:40;16.90;;;10.30;;
21360;SDS011;10839;43.206;23.550;2023-04-24T02:59:07;16.77;;;9.27;;
21360;SDS011;10839;43.206;23.550;2023-04-24T03:01:33;12.82;;;8.32;;
21360;SDS011;10839;43.206;23.550;2023-04-24T03:03:59;15.13;;;8.40;;
21360;SDS011;10839;43.206;23.550;2023-04-24T03:06:25;18.17;;;9.85;;
21360;SDS011;10839;43.206;23.550;2023-04-24T03:08:52;29.13;;;17.67;;
21360;SDS011;10839;43.206;23.550;2023-04-24T03:11:19;53.13;;;30.40;;
21360;SDS011;10839;43.206;23.550;2023-04-24T03:13:45;29.38;;;16.40;;
21360;SDS011;10839;43.206;23.550;2023-04-24T03:16:11;18.77;;;11.38;;
21360;SDS011;10839;43.206;23.550;2023-04-24T03:18:37;15.68;;;9.07;;
21360;SDS011;10839;43.206;23.550;2023-04-24T03:21:05;15.43;;;9.45;;
21360;SDS011;10839;43.206;23.550;2023-04-24T03:23:31;12.65;;;8.35;;
21360;SDS011;10839;43.206;23.550;2023-04-24T03:25:57;14.48;;;8.60;;
21360;SDS011;10839;43.206;23.550;2023-04-24T03:28:24;38.78;;;21.33;;
21360;SDS011;10839;43.206;23.550;2023-04-24T03:30:59;62.75;;;35.17;;
21360;SDS011;10839;43.206;23.550;2023-04-24T03:33:30;29.10;;;17.40;;
21360;SDS011;10839;43.206;23.550;2023-04-24T03:36:00;20.67;;;12.10;;
21360;SDS011;10839;43.206;23.550;2023-04-24T03:38:34;19.13;;;11.70;;
21360;SDS011;10839;43.206;23.550;2023-04-24T03:41:16;21.98;;;9.20;;
21360;SDS011;10839;43.206;23.550;2023-04-24T03:43:47;15.50;;;9.70;;
21360;SDS011;10839;43.206;23.550;2023-04-24T03:46:14;16.20;;;9.15;;
21360;SDS011;10839;43.206;23.550;2023-04-24T03:48:45;15.38;;;8.95;;
21360;SDS011;10839;43.206;23.550;2023-04-24T03:51:12;12.05;;;8.65;;
21360;SDS011;10839;43.206;23.550;2023-04-24T03:53:42;14.38;;;9.30;;
21360;SDS011;10839;43.206;23.550;2023-04-24T03:56:10;17.50;;;10.98;;
21360;SDS011;10839;43.206;23.550;2023-04-24T03:58:37;17.75;;;11.35;;
21360;SDS011;10839;43.206;23.550;2023-04-24T04:01:03;36.60;;;20.05;;
21360;SDS011;10839;43.206;23.550;2023-04-24T04:03:41;22.50;;;10.73;;
21360;SDS011;10839;43.206;23.550;2023-04-24T04:06:07;21.40;;;9.75;;
21360;SDS011;10839;43.206;23.550;2023-04-24T04:08:33;17.90;;;10.18;;
21360;SDS011;10839;43.206;23.550;2023-04-24T04:11:00;18.00;;;10.10;;
21360;SDS011;10839;43.206;23.550;2023-04-24T04:13:26;14.50;;;9.50;;
21360;SDS011;10839;43.206;23.550;2023-04-24T04:15:52;17.52;;;9.68;;
21360;SDS011;10839;43.206;23.550;2023-04-24T04:18:18;13.85;;;9.48;;
21360;SDS011;10839;43.206;23.550;2023-04-24T04:20:44;14.10;;;8.60;;
21360;SDS011;10839;43.206;23.550;2023-04-24T04:23:15;18.58;;;8.70;;
21360;SDS011;10839;43.206;23.550;2023-04-24T04:25:54;12.55;;;8.25;;
21360;SDS011;10839;43.206;23.550;2023-04-24T04:28:24;16.08;;;9.20;;
21360;SDS011;10839;43.206;23.550;2023-04-24T04:30:51;15.10;;;8.75;;
21360;SDS011;10839;43.206;23.550;2023-04-24T04:33:20;17.95;;;8.68;;
21360;SDS011;10839;43.206;23.550;2023-04-24T04:35:47;16.08;;;9.35;;
21360;SDS011;10839;43.206;23.550;2023-04-24T04:38:18;13.88;;;8.38;;
21360;SDS011;10839;43.206;23.550;2023-04-24T04:40:56;12.23;;;7.75;;
21360;SDS011;10839;43.206;23.550;2023-04-24T04:43:26;16.13;;;8.80;;
21360;SDS011;10839;43.206;23.550;2023-04-24T04:45:53;20.08;;;9.48;;
21360;SDS011;10839;43.206;23.550;2023-04-24T04:48:41;12.20;;;7.93;;
21360;SDS011;10839;43.206;23.550;2023-04-24T04:51:07;30.27;;;13.07;;
21360;SDS011;10839;43.206;23.550;2023-04-24T04:53:33;38.17;;;13.60;;
21360;SDS011;10839;43.206;23.550;2023-04-24T04:55:58;29.73;;;13.20;;
21360;SDS011;10839;43.206;23.550;2023-04-24T04:58:31;27.00;;;13.17;;
21360;SDS011;10839;43.206;23.550;2023-04-24T05:00:59;21.25;;;9.73;;
21360;SDS011;10839;43.206;23.550;2023-04-24T05:03:34;13.93;;;9.38;;
21360;SDS011;10839;43.206;23.550;2023-04-24T05:06:05;13.05;;;7.50;;
21360;SDS011;10839;43.206;23.550;2023-04-24T05:08:36;16.95;;;8.93;;
21360;SDS011;10839;43.206;23.550;2023-04-24T05:11:04;15.57;;;8.95;;
21360;SDS011;10839;43.206;23.550;2023-04-24T05:13:31;14.05;;;8.13;;
21360;SDS011;10839;43.206;23.550;2023-04-24T05:15:58;14.88;;;8.13;;
21360;SDS011;10839;43.206;23.550;2023-04-24T05:18:25;12.45;;;8.18;;
21360;SDS011;10839;43.206;23.550;2023-04-24T05:20:51;14.95;;;8.50;;
21360;SDS011;10839;43.206;23.550;2023-04-24T05:23:17;12.18;;;8.20;;
21360;SDS011;10839;43.206;23.550;2023-04-24T05:25:46;11.68;;;8.43;;
21360;SDS011;10839;43.206;23.550;2023-04-24T05:28:13;12.75;;;8.13;;
21360;SDS011;10839;43.206;23.550;2023-04-24T05:30:39;13.65;;;8.50;;
21360;SDS011;10839;43.206;23.550;2023-04-24T05:33:06;15.00;;;8.65;;
21360;SDS011;10839;43.206;23.550;2023-04-24T05:35:34;14.43;;;7.65;;
21360;SDS011;10839;43.206;23.550;2023-04-24T05:38:00;12.68;;;7.35;;
21360;SDS011;10839;43.206;23.550;2023-04-24T05:40:26;13.27;;;7.60;;
21360;SDS011;10839;43.206;23.550;2023-04-24T05:42:52;10.88;;;6.85;;
21360;SDS011;10839;43.206;23.550;2023-04-24T05:45:19;10.50;;;7.00;;
21360;SDS011;10839;43.206;23.550;2023-04-24T05:47:45;12.10;;;7.13;;
21360;SDS011;10839;43.206;23.550;2023-04-24T05:50:11;9.10;;;6.40;;
21360;SDS011;10839;43.206;23.550;2023-04-24T05:52:37;16.77;;;7.13;;
21360;SDS011;10839;43.206;23.550;2023-04-24T05:55:10;13.30;;;7.72;;
21360;SDS011;10839;43.206;23.550;2023-04-24T05:57:38;10.13;;;6.85;;
21360;SDS011;10839;43.206;23.550;2023-04-24T06:00:05;10.05;;;6.82;;
21360;SDS011;10839;43.206;23.550;2023-04-24T06:02:39;13.75;;;7.10;;
21360;SDS011;10839;43.206;23.550;2023-04-24T06:05:08;10.55;;;6.70;;
21360;SDS011;10839;43.206;23.550;2023-04-24T06:07:33;11.57;;;6.57;;
21360;SDS011;10839;43.206;23.550;2023-04-24T06:10:03;12.85;;;6.43;;
21360;SDS011;10839;43.206;23.550;2023-04-24T06:12:36;8.60;;;6.32;;
21360;SDS011;10839;43.206;23.550;2023-04-24T06:15:08;12.25;;;7.03;;
21360;SDS011;10839;43.206;23.550;2023-04-24T06:18:10;19.20;;;9.77;;
21360;SDS011;10839;43.206;23.550;2023-04-24T06:20:37;17.05;;;9.70;;
21360;SDS011;10839;43.206;23.550;2023-04-24T06:23:04;13.05;;;8.68;;
21360;SDS011;10839;43.206;23.550;2023-04-24T06:25:32;16.38;;;9.60;;
21360;SDS011;10839;43.206;23.550;2023-04-24T06:27:58;9.93;;;8.30;;
21360;SDS011;10839;43.206;23.550;2023-04-24T06:30:24;16.13;;;8.88;;
21360;SDS011;10839;43.206;23.550;2023-04-24T06:32:50;19.73;;;7.97;;
21360;SDS011;10839;43.206;23.550;2023-04-24T06:35:16;15.10;;;8.40;;
21360;SDS011;10839;43.206;23.550;2023-04-24T06:37:42;12.48;;;7.90;;
21360;SDS011;10839;43.206;23.550;2023-04-24T06:40:08;12.85;;;8.07;;
21360;SDS011;10839;43.206;23.550;2023-04-24T06:42:35;34.70;;;15.27;;
21360;SDS011;10839;43.206;23.550;2023-04-24T06:45:03;14.55;;;8.85;;
21360;SDS011;10839;43.206;23.550;2023-04-24T06:47:29;15.30;;;8.38;;
21360;SDS011;10839;43.206;23.550;2023-04-24T06:49:55;19.80;;;8.98;;
21360;SDS011;10839;43.206;23.550;2023-04-24T06:52:21;12.88;;;8.82;;
21360;SDS011;10839;43.206;23.550;2023-04-24T06:54:47;15.05;;;9.07;;
21360;SDS011;10839;43.206;23.550;2023-04-24T06:57:12;15.63;;;9.48;;
21360;SDS011;10839;43.206;23.550;2023-04-24T06:59:38;18.73;;;9.77;;
21360;SDS011;10839;43.206;23.550;2023-04-24T07:02:04;13.43;;;8.85;;
21360;SDS011;10839;43.206;23.550;2023-04-24T07:04:31;14.60;;;9.25;;
21360;SDS011;10839;43.206;23.550;2023-04-24T07:06:57;21.77;;;15.32;;
21360;SDS011;10839;43.206;23.550;2023-04-24T07:09:23;20.63;;;13.10;;
21360;SDS011;10839;43.206;23.550;2023-04-24T07:11:50;16.33;;;12.18;;
21360;SDS011;10839;43.206;23.550;2023-04-24T07:14:17;16.15;;;11.43;;
21360;SDS011;10839;43.206;23.550;2023-04-24T07:16:43;17.98;;;11.25;;
21360;SDS011;10839;43.206;23.550;2023-04-24T07:19:09;13.07;;;10.00;;
21360;SDS011;10839;43.206;23.550;2023-04-24T07:21:35;15.45;;;8.70;;
21360;SDS011;10839;43.206;23.550;2023-04-24T07:24:01;12.65;;;9.45;;
21360;SDS011;10839;43.206;23.550;2023-04-24T07:26:28;21.65;;;13.15;;
21360;SDS011;10839;43.206;23.550;2023-04-24T07:28:55;13.90;;;8.75;;
21360;SDS011;10839;43.206;23.550;2023-04-24T07:31:21;11.00;;;8.57;;
21360;SDS011;10839;43.206;23.550;2023-04-24T07:33:47;10.68;;;8.70;;
21360;SDS011;10839;43.206;23.550;2023-04-24T07:36:13;12.38;;;8.82;;
21360;SDS011;10839;43.206;23.550;2023-04-24T07:38:44;10.13;;;7.43;;
21360;SDS011;10839;43.206;23.550;2023-04-24T07:41:11;10.65;;;7.40;;
21360;SDS011;10839;43.206;23.550;2023-04-24T07:43:40;10.93;;;7.57;;
21360;SDS011;10839;43.206;23.550;2023-04-24T07:46:06;11.10;;;7.10;;
21360;SDS011;10839;43.206;23.550;2023-04-24T07:48:33;11.70;;;7.35;;
21360;SDS011;10839;43.206;23.550;2023-04-24T07:50:59;19.95;;;9.75;;
21360;SDS011;10839;43.206;23.550;2023-04-24T07:53:25;15.00;;;9.20;;
21360;SDS011;10839;43.206;23.550;2023-04-24T07:55:51;9.68;;;7.57;;
21360;SDS011;10839;43.206;23.550;2023-04-24T07:58:16;12.90;;;7.18;;
21360;SDS011;10839;43.206;23.550;2023-04-24T08:00:42;16.15;;;6.82;;
21360;SDS011;10839;43.206;23.550;2023-04-24T08:03:08;11.18;;;6.45;;
21360;SDS011;10839;43.206;23.550;2023-04-24T08:05:34;16.38;;;7.60;;
21360;SDS011;10839;43.206;23.550;2023-04-24T08:08:00;9.75;;;7.68;;
21360;SDS011;10839;43.206;23.550;2023-04-24T08:10:26;13.15;;;7.38;;
21360;SDS011;10839;43.206;23.550;2023-04-24T08:12:51;12.93;;;7.68;;
21360;SDS011;10839;43.206;23.550;2023-04-24T08:15:17;11.93;;;7.05;;
21360;SDS011;10839;43.206;23.550;2023-04-24T08:17:43;10.75;;;7.43;;
21360;SDS011;10839;43.206;23.550;2023-04-24T08:20:10;9.70;;;7.60;;
21360;SDS011;10839;43.206;23.550;2023-04-24T08:22:39;13.82;;;7.43;;
21360;SDS011;10839;43.206;23.550;2023-04-24T08:25:06;21.30;;;13.60;;
21360;SDS011;10839;43.206;23.550;2023-04-24T08:27:33;36.55;;;24.40;;
21360;SDS011;10839;43.206;23.550;2023-04-24T08:29:59;18.63;;;11.43;;
21360;SDS011;10839;43.206;23.550;2023-04-24T08:32:25;13.43;;;9.93;;
21360;SDS011;10839;43.206;23.550;2023-04-24T08:34:54;17.13;;;10.77;;
21360;SDS011;10839;43.206;23.550;2023-04-24T08:37:22;15.13;;;9.73;;
21360;SDS011;10839;43.206;23.550;2023-04-24T08:39:51;17.88;;;10.80;;
21360;SDS011;10839;43.206;23.550;2023-04-24T08:42:17;14.82;;;9.55;;
21360;SDS011;10839;43.206;23.550;2023-04-24T08:44:44;14.68;;;10.18;;
21360;SDS011;10839;43.206;23.550;2023-04-24T08:47:10;19.00;;;11.32;;
21360;SDS011;10839;43.206;23.550;2023-04-24T08:49:37;22.75;;;12.98;;
21360;SDS011;10839;43.206;23.550;2023-04-24T08:52:07;26.50;;;17.65;;
21360;SDS011;10839;43.206;23.550;2023-04-24T08:54:36;21.20;;;11.45;;
21360;SDS011;10839;43.206;23.550;2023-04-24T08:57:06;20.25;;;12.13;;
21360;SDS011;10839;43.206;23.550;2023-04-24T08:59:33;18.67;;;12.32;;
21360;SDS011;10839;43.206;23.550;2023-04-24T09:02:02;21.83;;;11.85;;
21360;SDS011;10839;43.206;23.550;2023-04-24T09:04:30;13.45;;;8.52;;
21360;SDS011;10839;43.206;23.550;2023-04-24T09:06:58;12.57;;;9.45;;
21360;SDS011;10839;43.206;23.550;2023-04-24T09:09:25;10.55;;;7.63;;
21360;SDS011;10839;43.206;23.550;2023-04-24T09:11:55;13.35;;;8.65;;
21360;SDS011;10839;43.206;23.550;2023-04-24T09:14:22;10.93;;;7.60;;
21360;SDS011;10839;43.206;23.550;2023-04-24T09:16:49;14.88;;;6.95;;
21360;SDS011;10839;43.206;23.550;2023-04-24T09:19:15;9.77;;;5.57;;
21360;SDS011;10839;43.206;23.550;2023-04-24T09:21:41;6.15;;;5.00;;
21360;SDS011;10839;43.206;23.550;2023-04-24T09:24:17;5.88;;;5.03;;
21360;SDS011;10839;43.206;23.550;2023-04-24T09:26:46;11.65;;;5.72;;
21360;SDS011;10839;43.206;23.550;2023-04-24T09:29:15;8.60;;;5.10;;
21360;SDS011;10839;43.206;23.550;2023-04-24T09:31:45;10.95;;;6.97;;
21360;SDS011;10839;43.206;23.550;2023-04-24T09:34:11;10.98;;;6.32;;
21360;SDS011;10839;43.206;23.550;2023-04-24T09:36:38;8.23;;;6.53;;
21360;SDS011;10839;43.206;23.550;2023-04-24T09:39:10;7.00;;;5.30;;
21360;SDS011;10839;43.206;23.550;2023-04-24T09:41:51;9.27;;;6.45;;
21360;SDS011;10839;43.206;23.550;2023-04-24T09:44:19;9.60;;;4.93;;
21360;SDS011;10839;43.206;23.550;2023-04-24T09:46:53;8.25;;;4.80;;
21360;SDS011;10839;43.206;23.550;2023-04-24T09:49:24;6.65;;;4.43;;
21360;SDS011;10839;43.206;23.550;2023-04-24T09:51:52;6.18;;;3.97;;
21360;SDS011;10839;43.206;23.550;2023-04-24T09:54:35;8.27;;;4.20;;
21360;SDS011;10839;43.206;23.550;2023-04-24T09:57:10;5.97;;;3.88;;
21360;SDS011;10839;43.206;23.550;2023-04-24T09:59:38;8.18;;;4.90;;
21360;SDS011;10839;43.206;23.550;2023-04-24T10:05:03;6.72;;;4.32;;
21360;SDS011;10839;43.206;23.550;2023-04-24T10:07:32;9.20;;;4.22;;
21360;SDS011;10839;43.206;23.550;2023-04-24T10:09:58;11.00;;;4.40;;
21360;SDS011;10839;43.206;23.550;2023-04-24T10:12:25;7.90;;;4.43;;
21360;SDS011;10839;43.206;23.550;2023-04-24T10:14:52;9.10;;;5.10;;
21360;SDS011;10839;43.206;23.550;2023-04-24T10:17:18;6.88;;;5.45;;
21360;SDS011;10839;43.206;23.550;2023-04-24T10:19:46;5.25;;;3.72;;
21360;SDS011;10839;43.206;23.550;2023-04-24T10:22:14;7.00;;;4.38;;
21360;SDS011;10839;43.206;23.550;2023-04-24T10:24:43;6.50;;;4.25;;
21360;SDS011;10839;43.206;23.550;2023-04-24T10:27:10;5.07;;;4.03;;
21360;SDS011;10839;43.206;23.550;2023-04-24T10:29:36;7.47;;;4.53;;
21360;SDS011;10839;43.206;23.550;2023-04-24T10:32:06;6.18;;;4.28;;
21360;SDS011;10839;43.206;23.550;2023-04-24T10:34:32;6.68;;;4.18;;
21360;SDS011;10839;43.206;23.550;2023-04-24T10:36:58;6.28;;;4.32;;
21360;SDS011;10839;43.206;23.550;2023-04-24T10:39:24;7.63;;;4.28;;
21360;SDS011;10839;43.206;23.550;2023-04-24T10:41:50;7.85;;;4.82;;
21360;SDS011;10839;43.206;23.550;2023-04-24T10:44:16;6.45;;;4.50;;
21360;SDS011;10839;43.206;23.550;2023-04-24T10:46:43;8.60;;;5.22;;
21360;SDS011;10839;43.206;23.550;2023-04-24T10:49:17;10.40;;;4.60;;
21360;SDS011;10839;43.206;23.550;2023-04-24T10:51:54;8.63;;;4.55;;
21360;SDS011;10839;43.206;23.550;2023-04-24T10:54:41;6.35;;;4.72;;
21360;SDS011;10839;43.206;23.550;2023-04-24T10:57:28;6.35;;;4.55;;
21360;SDS011;10839;43.206;23.550;2023-04-24T11:02:45;8.52;;;4.60;;
21360;SDS011;10839;43.206;23.550;2023-04-24T11:05:15;6.35;;;4.50;;
21360;SDS011;10839;43.206;23.550;2023-04-24T11:10:55;8.73;;;4.55;;
21360;SDS011;10839;43.206;23.550;2023-04-24T11:13:23;6.43;;;4.15;;
21360;SDS011;10839;43.206;23.550;2023-04-24T11:16:23;5.47;;;4.05;;
21360;SDS011;10839;43.206;23.550;2023-04-24T11:19:05;4.38;;;3.80;;
21360;SDS011;10839;43.206;23.550;2023-04-24T11:21:39;4.95;;;3.78;;
21360;SDS011;10839;43.206;23.550;2023-04-24T11:24:27;6.53;;;3.97;;
21360;SDS011;10839;43.206;23.550;2023-04-24T11:26:59;5.70;;;3.85;;
21360;SDS011;10839;43.206;23.550;2023-04-24T11:29:51;7.30;;;4.13;;
21360;SDS011;10839;43.206;23.550;2023-04-24T11:37:26;5.65;;;3.95;;
21360;SDS011;10839;43.206;23.550;2023-04-24T11:39:57;6.15;;;3.60;;
21360;SDS011;10839;43.206;23.550;2023-04-24T11:42:23;6.53;;;3.90;;
21360;SDS011;10839;43.206;23.550;2023-04-24T11:44:54;6.65;;;3.60;;
21360;SDS011;10839;43.206;23.550;2023-04-24T11:47:29;14.27;;;9.40;;
21360;SDS011;10839;43.206;23.550;2023-04-24T11:49:58;19.97;;;14.70;;
21360;SDS011;10839;43.206;23.550;2023-04-24T11:52:24;9.75;;;6.25;;
21360;SDS011;10839;43.206;23.550;2023-04-24T11:54:51;11.90;;;5.80;;
21360;SDS011;10839;43.206;23.550;2023-04-24T11:57:20;10.98;;;6.93;;
21360;SDS011;10839;43.206;23.550;2023-04-24T11:59:48;14.07;;;6.45;;
21360;SDS011;10839;43.206;23.550;2023-04-24T12:02:32;5.00;;;4.50;;
21360;SDS011;10839;43.206;23.550;2023-04-24T12:04:59;8.68;;;4.43;;
21360;SDS011;10839;43.206;23.550;2023-04-24T12:07:25;10.10;;;4.90;;
21360;SDS011;10839;43.206;23.550;2023-04-24T12:09:57;7.35;;;5.32;;
21360;SDS011;10839;43.206;23.550;2023-04-24T12:12:27;8.75;;;5.45;;
21360;SDS011;10839;43.206;23.550;2023-04-24T12:14:57;7.82;;;5.13;;
21360;SDS011;10839;43.206;23.550;2023-04-24T12:17:27;10.23;;;4.68;;
21360;SDS011;10839;43.206;23.550;2023-04-24T12:20:01;14.60;;;8.38;;
21360;SDS011;10839;43.206;23.550;2023-04-24T12:22:53;15.82;;;8.90;;
21360;SDS011;10839;43.206;23.550;2023-04-24T12:25:22;11.70;;;7.63;;
21360;SDS011;10839;43.206;23.550;2023-04-24T12:30:29;10.32;;;6.90;;
21360;SDS011;10839;43.206;23.550;2023-04-24T12:32:57;8.02;;;6.10;;
21360;SDS011;10839;43.206;23.550;2023-04-24T12:35:24;7.22;;;6.07;;
21360;SDS011;10839;43.206;23.550;2023-04-24T12:37:52;10.85;;;6.97;;
21360;SDS011;10839;43.206;23.550;2023-04-24T12:40:19;9.80;;;7.25;;
21360;SDS011;10839;43.206;23.550;2023-04-24T12:42:47;8.05;;;6.30;;
21360;SDS011;10839;43.206;23.550;2023-04-24T12:45:14;8.55;;;6.20;;
21360;SDS011;10839;43.206;23.550;2023-04-24T12:47:42;8.93;;;6.35;;
21360;SDS011;10839;43.206;23.550;2023-04-24T12:50:10;10.68;;;5.80;;
21360;SDS011;10839;43.206;23.550;2023-04-24T12:52:40;9.93;;;5.90;;
21360;SDS011;10839;43.206;23.550;2023-04-24T12:55:07;15.18;;;9.35;;
21360;SDS011;10839;43.206;23.550;2023-04-24T12:57:35;17.92;;;10.23;;
21360;SDS011;10839;43.206;23.550;2023-04-24T13:00:03;19.63;;;8.98;;
21360;SDS011;10839;43.206;23.550;2023-04-24T13:02:33;9.55;;;6.53;;
21360;SDS011;10839;43.206;23.550;2023-04-24T13:04:59;10.85;;;6.57;;
21360;SDS011;10839;43.206;23.550;2023-04-24T13:07:26;7.05;;;5.60;;
21360;SDS011;10839;43.206;23.550;2023-04-24T13:09:52;9.57;;;6.00;;
21360;SDS011;10839;43.206;23.550;2023-04-24T13:12:19;7.47;;;5.93;;
21360;SDS011;10839;43.206;23.550;2023-04-24T13:14:46;10.77;;;7.65;;
21360;SDS011;10839;43.206;23.550;2023-04-24T13:17:12;16.80;;;10.00;;
21360;SDS011;10839;43.206;23.550;2023-04-24T13:19:40;7.22;;;5.57;;
21360;SDS011;10839;43.206;23.550;2023-04-24T13:22:08;8.32;;;6.13;;
21360;SDS011;10839;43.206;23.550;2023-04-24T13:24:35;10.43;;;6.18;;
21360;SDS011;10839;43.206;23.550;2023-04-24T13:27:01;11.20;;;5.85;;
21360;SDS011;10839;43.206;23.550;2023-04-24T13:29:27;6.30;;;5.45;;
21360;SDS011;10839;43.206;23.550;2023-04-24T13:31:54;7.22;;;5.35;;
21360;SDS011;10839;43.206;23.550;2023-04-24T13:34:20;14.68;;;9.85;;
21360;SDS011;10839;43.206;23.550;2023-04-24T13:36:53;11.73;;;6.85;;
21360;SDS011;10839;43.206;23.550;2023-04-24T13:39:21;14.43;;;8.57;;
21360;SDS011;10839;43.206;23.550;2023-04-24T13:41:47;13.80;;;7.47;;
21360;SDS011;10839;43.206;23.550;2023-04-24T13:44:17;9.23;;;5.47;;
21360;SDS011;10839;43.206;23.550;2023-04-24T13:46:45;6.07;;;5.47;;
21360;SDS011;10839;43.206;23.550;2023-04-24T13:49:12;10.88;;;5.50;;
21360;SDS011;10839;43.206;23.550;2023-04-24T13:51:40;8.35;;;5.80;;
21360;SDS011;10839;43.206;23.550;2023-04-24T13:54:07;9.65;;;6.00;;
21360;SDS011;10839;43.206;23.550;2023-04-24T13:56:33;8.60;;;6.03;;
21360;SDS011;10839;43.206;23.550;2023-04-24T13:58:59;8.48;;;5.55;;
21360;SDS011;10839;43.206;23.550;2023-04-24T14:01:25;11.13;;;6.20;;
21360;SDS011;10839;43.206;23.550;2023-04-24T14:03:52;8.90;;;5.65;;
21360;SDS011;10839;43.206;23.550;2023-04-24T14:06:19;7.28;;;5.10;;
21360;SDS011;10839;43.206;23.550;2023-04-24T14:08:45;15.15;;;8.73;;
21360;SDS011;10839;43.206;23.550;2023-04-24T14:11:12;6.32;;;4.88;;
21360;SDS011;10839;43.206;23.550;2023-04-24T14:13:38;11.77;;;5.00;;
21360;SDS011;10839;43.206;23.550;2023-04-24T14:16:06;6.07;;;4.68;;
21360;SDS011;10839;43.206;23.550;2023-04-24T14:18:31;7.20;;;4.70;;
21360;SDS011;10839;43.206;23.550;2023-04-24T14:20:57;6.22;;;4.75;;
21360;SDS011;10839;43.206;23.550;2023-04-24T14:23:24;7.22;;;4.68;;
21360;SDS011;10839;43.206;23.550;2023-04-24T14:25:50;10.02;;;4.70;;
21360;SDS011;10839;43.206;23.550;2023-04-24T14:28:18;6.53;;;4.97;;
21360;SDS011;10839;43.206;23.550;2023-04-24T14:30:45;6.97;;;4.85;;
21360;SDS011;10839;43.206;23.550;2023-04-24T14:33:12;7.40;;;5.00;;
21360;SDS011;10839;43.206;23.550;2023-04-24T14:35:40;6.20;;;4.70;;
21360;SDS011;10839;43.206;23.550;2023-04-24T14:38:10;6.72;;;4.80;;
21360;SDS011;10839;43.206;23.550;2023-04-24T14:40:36;5.20;;;4.25;;
21360;SDS011;10839;43.206;23.550;2023-04-24T14:43:03;7.28;;;5.03;;
21360;SDS011;10839;43.206;23.550;2023-04-24T14:45:29;19.75;;;9.95;;